sensor_id;sensor_type;location;lat;lon;timestamp;P1;durP1;ratioP1;P2;durP2;ratioP2
10381;SDS011;11635;53.636;10.120;2023-05-10T18:30:18;6.90;;;6.20;;
10381;SDS011;11635;53.636;10.120;2023-05-10T18:49:51;6.65;;;5.43;;
10381;SDS011;11635;53.636;10.120;2023-05-10T18:52:18;5.63;;;5.13;;
10381;SDS011;11635;53.636;10.120;2023-05-10T19:31:35;5.53;;;4.95;;
10381;SDS011;11635;53.636;10.120;2023-05-10T19:34:02;5.78;;;5.28;;
10381;SDS011;11635;53.636;10.120;2023-05-10T19:36:28;5.57;;;4.85;;
10381;SDS011;11635;53.636;10.120;2023-05-10T19:38:57;5.65;;;5.15;;
10381;SDS011;11635;53.636;10.120;2023-05-10T19:41:29;6.03;;;5.00;;
10381;SDS011;11635;53.636;10.120;2023-05-10T19:43:56;5.63;;;5.07;;
10381;SDS011;11635;53.636;10.120;2023-05-10T19:46:23;5.53;;;5.03;;
10381;SDS011;11635;53.636;10.120;2023-05-10T19:48:59;5.78;;;5.05;;
10381;SDS011;11635;53.636;10.120;2023-05-10T19:51:32;6.97;;;5.88;;
10381;SDS011;11635;53.636;10.120;2023-05-10T19:53:59;5.75;;;5.15;;
10381;SDS011;11635;53.636;10.120;2023-05-10T19:56:25;5.65;;;5.03;;
10381;SDS011;11635;53.636;10.120;2023-05-10T19:58:55;5.47;;;4.97;;
10381;SDS011;11635;53.636;10.120;2023-05-10T20:01:22;5.60;;;5.10;;
10381;SDS011;11635;53.636;10.120;2023-05-10T20:03:51;5.72;;;4.70;;
10381;SDS011;11635;53.636;10.120;2023-05-10T20:06:20;6.03;;;5.43;;
10381;SDS011;11635;53.636;10.120;2023-05-10T20:08:49;6.40;;;5.70;;
10381;SDS011;11635;53.636;10.120;2023-05-10T20:11:16;6.88;;;5.30;;
10381;SDS011;11635;53.636;10.120;2023-05-10T20:13:44;5.88;;;5.38;;
10381;SDS011;11635;53.636;10.120;2023-05-10T20:16:14;6.53;;;5.80;;
10381;SDS011;11635;53.636;10.120;2023-05-10T20:18:44;5.85;;;5.35;;
10381;SDS011;11635;53.636;10.120;2023-05-10T20:21:20;6.63;;;6.07;;
10381;SDS011;11635;53.636;10.120;2023-05-10T20:23:50;7.60;;;6.90;;
10381;SDS011;11635;53.636;10.120;2023-05-10T20:26:17;8.38;;;7.57;;
10381;SDS011;11635;53.636;10.120;2023-05-10T20:28:53;8.82;;;7.95;;
10381;SDS011;11635;53.636;10.120;2023-05-10T20:31:20;8.75;;;7.95;;
10381;SDS011;11635;53.636;10.120;2023-05-10T20:33:49;8.40;;;7.60;;
10381;SDS011;11635;53.636;10.120;2023-05-10T20:36:15;9.00;;;8.20;;
10381;SDS011;11635;53.636;10.120;2023-05-10T20:38:46;9.55;;;8.70;;
10381;SDS011;11635;53.636;10.120;2023-05-10T20:41:14;10.05;;;9.15;;
10381;SDS011;11635;53.636;10.120;2023-05-10T20:43:41;9.85;;;8.95;;
10381;SDS011;11635;53.636;10.120;2023-05-10T20:46:07;8.93;;;8.13;;
10381;SDS011;11635;53.636;10.120;2023-05-10T20:48:34;10.00;;;9.13;;
10381;SDS011;11635;53.636;10.120;2023-05-10T20:51:00;9.82;;;9.00;;
10381;SDS011;11635;53.636;10.120;2023-05-10T20:53:27;9.57;;;8.77;;
10381;SDS011;11635;53.636;10.120;2023-05-10T20:55:54;11.32;;;10.27;;
10381;SDS011;11635;53.636;10.120;2023-05-10T20:58:21;10.38;;;9.48;;
10381;SDS011;11635;53.636;10.120;2023-05-10T21:00:47;10.60;;;9.70;;
10381;SDS011;11635;53.636;10.120;2023-05-10T21:03:14;10.40;;;9.48;;
10381;SDS011;11635;53.636;10.120;2023-05-10T21:05:40;11.18;;;10.07;;
10381;SDS011;11635;53.636;10.120;2023-05-10T21:08:07;11.40;;;10.30;;
10381;SDS011;11635;53.636;10.120;2023-05-10T21:13:05;10.60;;;9.50;;
10381;SDS011;11635;53.636;10.120;2023-05-10T21:15:32;10.77;;;9.68;;
10381;SDS011;11635;53.636;10.120;2023-05-10T21:17:59;10.57;;;9.57;;
10381;SDS011;11635;53.636;10.120;2023-05-10T21:20:25;10.20;;;9.30;;
10381;SDS011;11635;53.636;10.120;2023-05-10T21:22:51;10.52;;;9.45;;
10381;SDS011;11635;53.636;10.120;2023-05-10T21:25:18;10.98;;;9.95;;
10381;SDS011;11635;53.636;10.120;2023-05-10T21:27:44;10.05;;;9.05;;
10381;SDS011;11635;53.636;10.120;2023-05-10T21:30:12;11.63;;;10.52;;
10381;SDS011;11635;53.636;10.120;2023-05-10T21:32:39;11.27;;;10.07;;
10381;SDS011;11635;53.636;10.120;2023-05-10T21:35:05;10.82;;;9.55;;
10381;SDS011;11635;53.636;10.120;2023-05-10T21:37:32;10.93;;;9.82;;
10381;SDS011;11635;53.636;10.120;2023-05-10T21:39:58;11.02;;;9.85;;
10381;SDS011;11635;53.636;10.120;2023-05-10T21:42:25;11.48;;;10.38;;
10381;SDS011;11635;53.636;10.120;2023-05-10T21:44:51;11.75;;;10.50;;
10381;SDS011;11635;53.636;10.120;2023-05-10T21:47:19;11.50;;;10.40;;
10381;SDS011;11635;53.636;10.120;2023-05-10T21:49:46;12.68;;;11.38;;
10381;SDS011;11635;53.636;10.120;2023-05-10T21:52:12;13.40;;;10.85;;
10381;SDS011;11635;53.636;10.120;2023-05-10T21:54:39;11.60;;;10.40;;
10381;SDS011;11635;53.636;10.120;2023-05-10T21:57:05;12.52;;;11.02;;
10381;SDS011;11635;53.636;10.120;2023-05-10T21:59:32;13.90;;;11.82;;
10381;SDS011;11635;53.636;10.120;2023-05-10T22:01:58;13.88;;;11.80;;
10381;SDS011;11635;53.636;10.120;2023-05-10T22:04:26;12.88;;;11.48;;
10381;SDS011;11635;53.636;10.120;2023-05-10T22:06:53;13.68;;;11.85;;
10381;SDS011;11635;53.636;10.120;2023-05-10T22:09:19;13.77;;;11.88;;
10381;SDS011;11635;53.636;10.120;2023-05-10T22:11:45;14.88;;;12.65;;
10381;SDS011;11635;53.636;10.120;2023-05-10T22:14:12;13.65;;;12.20;;
10381;SDS011;11635;53.636;10.120;2023-05-10T22:16:38;14.80;;;12.73;;
10381;SDS011;11635;53.636;10.120;2023-05-10T22:19:05;15.65;;;12.40;;
10381;SDS011;11635;53.636;10.120;2023-05-10T22:21:33;15.32;;;13.10;;
10381;SDS011;11635;53.636;10.120;2023-05-10T22:23:59;16.08;;;12.82;;
10381;SDS011;11635;53.636;10.120;2023-05-10T22:26:25;16.25;;;13.25;;
10381;SDS011;11635;53.636;10.120;2023-05-10T22:28:52;15.90;;;13.23;;
10381;SDS011;11635;53.636;10.120;2023-05-10T22:31:20;15.77;;;12.90;;
10381;SDS011;11635;53.636;10.120;2023-05-10T22:33:48;15.90;;;13.60;;
10381;SDS011;11635;53.636;10.120;2023-05-10T22:36:16;15.55;;;13.30;;
10381;SDS011;11635;53.636;10.120;2023-05-10T22:38:44;16.67;;;13.55;;
10381;SDS011;11635;53.636;10.120;2023-05-10T22:41:11;15.38;;;13.15;;
10381;SDS011;11635;53.636;10.120;2023-05-10T22:43:37;16.80;;;14.13;;
10381;SDS011;11635;53.636;10.120;2023-05-10T22:46:03;18.05;;;14.38;;
10381;SDS011;11635;53.636;10.120;2023-05-10T22:48:30;15.15;;;12.10;;
10381;SDS011;11635;53.636;10.120;2023-05-10T22:50:56;15.68;;;13.25;;
10381;SDS011;11635;53.636;10.120;2023-05-10T22:53:22;16.70;;;13.50;;
10381;SDS011;11635;53.636;10.120;2023-05-10T22:55:50;16.70;;;14.02;;
10381;SDS011;11635;53.636;10.120;2023-05-10T22:58:17;17.08;;;13.88;;
10381;SDS011;11635;53.636;10.120;2023-05-10T23:00:43;17.02;;;13.45;;
10381;SDS011;11635;53.636;10.120;2023-05-10T23:03:10;18.95;;;14.00;;
10381;SDS011;11635;53.636;10.120;2023-05-10T23:05:36;16.80;;;13.75;;
10381;SDS011;11635;53.636;10.120;2023-05-10T23:08:02;16.23;;;13.90;;
10381;SDS011;11635;53.636;10.120;2023-05-10T23:10:29;18.77;;;13.73;;
10381;SDS011;11635;53.636;10.120;2023-05-10T23:12:57;15.25;;;13.05;;
10381;SDS011;11635;53.636;10.120;2023-05-10T23:15:23;16.52;;;12.93;;
10381;SDS011;11635;53.636;10.120;2023-05-10T23:17:50;16.38;;;13.27;;
10381;SDS011;11635;53.636;10.120;2023-05-10T23:20:16;15.00;;;12.35;;
10381;SDS011;11635;53.636;10.120;2023-05-10T23:22:42;15.07;;;12.63;;
10381;SDS011;11635;53.636;10.120;2023-05-10T23:25:09;16.40;;;13.05;;
10381;SDS011;11635;53.636;10.120;2023-05-10T23:27:35;16.35;;;12.50;;
10381;SDS011;11635;53.636;10.120;2023-05-10T23:30:03;15.55;;;13.43;;
10381;SDS011;11635;53.636;10.120;2023-05-10T23:32:30;18.45;;;14.45;;
10381;SDS011;11635;53.636;10.120;2023-05-10T23:34:56;17.67;;;13.15;;
10381;SDS011;11635;53.636;10.120;2023-05-10T23:37:23;17.42;;;13.25;;
10381;SDS011;11635;53.636;10.120;2023-05-10T23:39:49;15.85;;;13.27;;
10381;SDS011;11635;53.636;10.120;2023-05-10T23:42:16;15.52;;;12.63;;
10381;SDS011;11635;53.636;10.120;2023-05-10T23:44:42;17.20;;;13.68;;
10381;SDS011;11635;53.636;10.120;2023-05-10T23:47:10;15.52;;;12.43;;
10381;SDS011;11635;53.636;10.120;2023-05-10T23:49:36;16.00;;;13.05;;
10381;SDS011;11635;53.636;10.120;2023-05-10T23:52:06;16.27;;;13.32;;
10381;SDS011;11635;53.636;10.120;2023-05-10T23:54:32;17.75;;;14.75;;
10381;SDS011;11635;53.636;10.120;2023-05-10T23:56:58;18.00;;;13.98;;
10381;SDS011;11635;53.636;10.120;2023-05-10T23:59:25;16.48;;;13.52;;
